Time;durP1;ratioP1;P1;durP2;ratioP2;P2;SDS_P1;SDS_P2;PMS_P1;PMS_P2;Temp;Humidity;BMP_temperature;BMP_pressure;BME280_temperature;BME280_humidity;BME280_pressure;Samples;Min_cycle;Max_cycle;Signal;HPM_P1;HPM_P2
2023/05/05 00:02:04;;;;;;;17.40;7.30;;;;;;;7.76;59.50;99666.89;104877;1255;96599;-81
2023/05/05 00:04:32;;;;;;;17.80;7.50;;;;;;;7.75;59.58;99663.94;104911;1259;106335;-81
2023/05/05 00:07:00;;;;;;;19.70;7.80;;;;;;;7.74;59.63;99664.71;104865;1259;97970;-80
2023/05/05 00:09:29;;;;;;;22.00;7.80;;;;;;;7.72;59.70;99669.04;104873;1262;96579;-80
2023/05/05 00:11:56;;;;;;;16.50;6.70;;;;;;;7.69;59.72;99672.04;104915;1254;108900;-80
2023/05/05 00:14:24;;;;;;;17.50;7.00;;;;;;;7.63;59.83;99672.50;104945;1267;96684;-81
2023/05/05 00:16:52;;;;;;;19.30;6.80;;;;;;;7.56;59.66;99671.75;104909;1258;109297;-80
2023/05/05 00:19:20;;;;;;;17.70;7.60;;;;;;;7.55;59.83;99673.42;104860;1271;96602;-81
2023/05/05 00:21:49;;;;;;;16.60;6.80;;;;;;;7.54;59.81;99671.89;104794;1258;96601;-82
2023/05/05 00:24:16;;;;;;;17.90;7.40;;;;;;;7.48;59.83;99675.02;104816;1269;109610;-81
2023/05/05 00:26:44;;;;;;;20.10;7.70;;;;;;;7.45;60.00;99673.57;104861;1270;96616;-81
2023/05/05 00:29:12;;;;;;;18.20;7.70;;;;;;;7.43;59.82;99671.02;104810;1263;108860;-81
2023/05/05 00:31:40;;;;;;;18.20;7.70;;;;;;;7.41;60.07;99673.77;104861;1270;97396;-81
2023/05/05 00:34:08;;;;;;;18.10;8.00;;;;;;;7.34;60.02;99670.40;104824;1259;97169;-81
2023/05/05 00:36:36;;;;;;;18.70;7.80;;;;;;;7.30;60.05;99670.06;104916;1259;111833;-80
2023/05/05 00:39:04;;;;;;;18.60;8.10;;;;;;;7.30;60.08;99664.61;104835;1259;96706;-80
2023/05/05 00:41:32;;;;;;;23.00;8.20;;;;;;;7.28;60.20;99665.56;104859;1263;108913;-80
2023/05/05 00:44:00;;;;;;;22.40;7.90;;;;;;;7.23;60.24;99662.10;104856;1270;96721;-82
2023/05/05 00:46:30;;;;;;;18.40;8.20;;;;;;;7.22;60.16;99654.91;104922;1261;97838;-82
2023/05/05 00:48:59;;;;;;;18.70;7.80;;;;;;;7.24;60.35;99655.00;104799;1259;110320;-81
2023/05/05 00:51:28;;;;;;;20.30;8.60;;;;;;;7.24;60.29;99653.77;104805;1262;96570;-80
2023/05/05 00:53:56;;;;;;;18.50;8.00;;;;;;;7.23;60.37;99656.45;104896;1260;106963;-80
2023/05/05 00:56:26;;;;;;;20.10;7.50;;;;;;;7.19;60.60;99661.44;104875;1261;97515;-81
2023/05/05 00:58:54;;;;;;;19.40;8.10;;;;;;;7.12;60.46;99660.70;104839;1260;96588;-81
2023/05/05 01:01:21;;;;;;;17.90;7.80;;;;;;;7.12;60.69;99661.21;104885;1266;111100;-81
2023/05/05 01:03:50;;;;;;;20.10;8.40;;;;;;;7.10;60.44;99656.91;104878;1260;96614;-80
2023/05/05 01:06:21;;;;;;;18.70;7.80;;;;;;;7.09;60.69;99653.09;104735;1261;107887;-81
2023/05/05 01:09:14;;;;;;;18.00;8.30;;;;;;;7.04;60.82;99656.17;104858;1262;96710;-80
2023/05/05 01:12:07;;;;;;;17.10;7.70;;;;;;;7.02;60.81;99654.48;104854;1268;96608;-81
2023/05/05 01:14:42;;;;;;;17.80;7.90;;;;;;;6.95;60.79;99651.64;104779;1268;108796;-81
2023/05/05 01:17:17;;;;;;;19.50;8.00;;;;;;;6.92;60.70;99653.40;104677;1259;96611;-82
2023/05/05 01:20:11;;;;;;;17.60;7.50;;;;;;;6.92;60.82;99650.59;104809;1269;107818;-80
2023/05/05 01:22:44;;;;;;;17.00;7.50;;;;;;;6.87;61.26;99651.48;104835;1260;97950;-80
2023/05/05 01:25:49;;;;;;;15.60;6.80;;;;;;;6.83;61.01;99649.40;104835;1260;96594;-81
2023/05/05 01:28:38;;;;;;;17.10;7.50;;;;;;;6.77;61.10;99655.17;104872;1255;109963;-81
2023/05/05 01:31:41;;;;;;;18.00;7.90;;;;;;;6.70;61.08;99655.83;104770;1263;97944;-80
2023/05/05 01:34:13;;;;;;;18.40;7.80;;;;;;;6.70;61.23;99652.65;105007;1269;106457;-81
2023/05/05 01:36:46;;;;;;;16.80;7.20;;;;;;;6.73;61.34;99652.38;105092;1266;96689;-82
2023/05/05 01:39:17;;;;;;;19.10;7.10;;;;;;;6.72;61.39;99653.98;104901;1269;96582;-81
2023/05/05 01:41:47;;;;;;;16.70;7.90;;;;;;;6.68;61.35;99654.17;104876;1268;109023;-81
2023/05/05 01:44:18;;;;;;;20.00;7.60;;;;;;;6.64;61.48;99650.30;104806;1263;96551;-81
2023/05/05 01:46:50;;;;;;;16.30;7.50;;;;;;;6.62;61.19;99647.73;104855;1260;108854;-81
2023/05/05 01:49:19;;;;;;;17.50;7.70;;;;;;;6.63;61.41;99645.20;104824;1259;97931;-81
2023/05/05 01:51:48;;;;;;;17.10;7.60;;;;;;;6.60;61.37;99644.50;104885;1262;96532;-81
2023/05/05 01:54:18;;;;;;;15.90;6.90;;;;;;;6.55;61.49;99640.98;104892;1262;110139;-82
2023/05/05 01:56:48;;;;;;;17.20;7.20;;;;;;;6.55;61.57;99644.88;104879;1262;96708;-81
2023/05/05 01:59:17;;;;;;;19.00;7.20;;;;;;;6.56;61.47;99640.77;104825;1258;107811;-81
2023/05/05 02:01:48;;;;;;;18.10;7.40;;;;;;;6.54;61.56;99638.93;104895;1267;97619;-81
2023/05/05 02:04:21;;;;;;;17.00;7.30;;;;;;;6.51;61.71;99636.95;104825;1260;96591;-82
2023/05/05 02:06:52;;;;;;;19.40;8.10;;;;;;;6.48;61.70;99637.48;104855;1270;108946;-82
2023/05/05 02:09:20;;;;;;;17.40;7.60;;;;;;;6.47;61.69;99643.14;104854;1261;96591;-81
2023/05/05 02:11:48;;;;;;;19.90;8.30;;;;;;;6.45;61.84;99640.77;104834;1267;107026;-81
2023/05/05 02:14:18;;;;;;;22.80;8.90;;;;;;;6.42;61.69;99638.29;104926;1263;96764;-82
2023/05/05 02:16:46;;;;;;;18.70;8.20;;;;;;;6.40;61.89;99635.17;104823;1269;97453;-81
2023/05/05 02:19:15;;;;;;;18.70;8.30;;;;;;;6.39;61.77;99638.60;104987;1264;110242;-82
2023/05/05 02:21:43;;;;;;;18.60;8.10;;;;;;;6.34;61.77;99635.09;104837;1259;96629;-81
2023/05/05 02:24:11;;;;;;;21.90;10.10;;;;;;;6.29;61.82;99632.18;104932;1270;108883;-82
2023/05/05 02:26:42;;;;;;;23.40;11.30;;;;;;;6.28;61.99;99631.34;104819;1269;96743;-80
2023/05/05 02:29:20;;;;;;;21.70;10.10;;;;;;;6.26;62.02;99627.21;104893;1260;96736;-80
2023/05/05 02:31:54;;;;;;;21.90;10.40;;;;;;;6.22;61.97;99628.98;104869;1269;109033;-80
2023/05/05 02:34:25;;;;;;;20.40;10.10;;;;;;;6.21;62.08;99628.68;104890;1259;96649;-80
2023/05/05 02:36:57;;;;;;;21.80;10.10;;;;;;;6.20;62.11;99626.42;104887;1269;107129;-80
2023/05/05 02:39:31;;;;;;;20.00;9.30;;;;;;;6.14;61.95;99631.44;104848;1269;97500;-81
2023/05/05 02:42:02;;;;;;;21.80;10.50;;;;;;;6.05;62.16;99633.07;104900;1260;96597;-80
2023/05/05 02:44:33;;;;;;;23.10;10.40;;;;;;;5.97;62.24;99635.48;104881;1263;108076;-81
2023/05/05 02:47:02;;;;;;;20.90;8.90;;;;;;;5.94;62.36;99636.49;104869;1268;96606;-81
2023/05/05 02:49:30;;;;;;;19.30;9.10;;;;;;;5.93;62.37;99638.66;104941;1267;107920;-80
2023/05/05 02:51:58;;;;;;;22.00;9.70;;;;;;;5.90;62.30;99640.58;104822;1276;96737;-81
2023/05/05 02:54:27;;;;;;;24.50;11.40;;;;;;;5.90;62.42;99648.32;104926;1269;97825;-80
2023/05/05 02:56:56;;;;;;;21.20;10.30;;;;;;;5.89;62.23;99649.59;104981;1268;110143;-80
2023/05/05 03:00:01;;;;;;;19.10;8.70;;;;;;;5.92;62.29;99652.61;104807;1259;96659;-81
2023/05/05 03:02:47;;;;;;;;;;;;;;;5.92;62.44;99651.20;104804;1268;107811;-81
2023/05/05 03:05:30;;;;;;;19.90;8.60;;;;;;;5.89;62.55;99655.23;104958;1265;97592;-82
2023/05/05 03:08:07;;;;;;;16.70;8.20;;;;;;;5.89;62.54;99658.05;104975;1260;97819;-81
2023/05/05 03:10:42;;;;;;;18.60;9.00;;;;;;;5.87;62.46;99655.30;104918;1260;109800;-82
2023/05/05 03:13:13;;;;;;;21.90;8.60;;;;;;;5.85;62.66;99657.33;104910;1256;97714;-82
2023/05/05 03:15:45;;;;;;;22.40;8.50;;;;;;;5.80;62.66;99652.63;104912;1270;107564;-82
2023/05/05 03:18:16;;;;;;;16.80;7.60;;;;;;;5.76;62.69;99647.14;104877;1261;96614;-81
2023/05/05 03:20:44;;;;;;;16.20;7.80;;;;;;;5.76;62.69;99650.17;104794;1278;96663;-82
2023/05/05 03:23:12;;;;;;;20.00;8.30;;;;;;;5.72;62.64;99646.27;104923;1261;110113;-83
2023/05/05 03:25:47;;;;;;;19.90;9.10;;;;;;;5.72;62.78;99647.33;104896;1268;96688;-82
2023/05/05 03:28:16;;;;;;;18.90;8.50;;;;;;;5.73;62.94;99649.41;104992;1267;108973;-82
2023/05/05 03:30:44;;;;;;;19.90;9.10;;;;;;;5.71;62.84;99651.27;104880;1270;96616;-82
2023/05/05 03:33:11;;;;;;;18.80;8.90;;;;;;;5.68;62.90;99656.33;104947;1263;97395;-81
2023/05/05 03:35:39;;;;;;;22.50;10.50;;;;;;;5.70;62.90;99651.99;104782;1267;109646;-81
2023/05/05 03:38:07;;;;;;;25.80;11.70;;;;;;;5.75;63.06;99651.77;104813;1268;96572;-81
2023/05/05 03:40:34;;;;;;;26.50;12.30;;;;;;;5.81;63.20;99651.70;104745;1260;108969;-81
2023/05/05 03:43:10;;;;;;;28.20;13.00;;;;;;;5.86;63.16;99653.06;104967;1271;97172;-82
2023/05/05 03:45:38;;;;;;;27.80;14.00;;;;;;;5.89;63.00;99656.27;105097;1260;96648;-82
2023/05/05 03:48:08;;;;;;;31.50;15.30;;;;;;;5.92;63.10;99662.10;105059;1260;111846;-82
2023/05/05 03:50:36;;;;;;;29.70;14.30;;;;;;;5.95;63.29;99664.65;108621;1254;95393;-80
2023/05/05 03:53:04;;;;;;;32.60;15.10;;;;;;;5.99;63.22;99664.84;108510;1257;107736;-80
2023/05/05 03:55:31;;;;;;;28.80;13.90;;;;;;;6.04;63.41;99661.81;108502;1257;94323;-80
2023/05/05 03:57:59;;;;;;;27.00;13.60;;;;;;;6.08;63.56;99661.98;108516;1257;94349;-80
2023/05/05 04:00:27;;;;;;;26.10;14.90;;;;;;;6.12;63.37;99660.03;108493;1257;110591;-80
2023/05/05 04:02:55;;;;;;;30.00;16.90;;;;;;;6.16;63.55;99660.58;108525;1256;94297;-80
2023/05/05 04:05:22;;;;;;;31.60;17.10;;;;;;;6.25;63.71;99656.66;106675;1257;108806;-82
2023/05/05 04:07:50;;;;;;;28.60;16.50;;;;;;;6.36;63.77;99659.51;105108;1262;96578;-79
2023/05/05 04:10:18;;;;;;;32.20;17.90;;;;;;;6.47;63.90;99656.38;105022;1258;96998;-82
2023/05/05 04:12:45;;;;;;;36.40;18.00;;;;;;;6.60;63.83;99655.96;105042;1259;111810;-81
2023/05/05 04:15:13;;;;;;;38.20;20.10;;;;;;;6.73;64.21;99657.96;105089;1258;97915;-81
2023/05/05 04:17:41;;;;;;;37.40;19.90;;;;;;;6.86;64.37;99657.38;104753;1261;106703;-81
2023/05/05 04:20:09;;;;;;;40.50;20.00;;;;;;;6.97;64.06;99655.05;104874;1260;96625;-81
2023/05/05 04:22:37;;;;;;;35.80;19.40;;;;;;;7.08;64.22;99655.27;104902;1257;96585;-81
2023/05/05 04:25:06;;;;;;;33.20;18.30;;;;;;;7.14;64.37;99657.98;104850;1257;109139;-81
2023/05/05 04:27:34;;;;;;;35.90;19.80;;;;;;;7.21;64.27;99662.40;104924;1260;97853;-81
2023/05/05 04:30:02;;;;;;;35.40;19.00;;;;;;;7.28;64.46;99664.50;104895;1260;107829;-81
2023/05/05 04:32:30;;;;;;;37.00;20.40;;;;;;;7.39;64.68;99665.20;104838;1269;96595;-81
2023/05/05 04:34:57;;;;;;;33.20;19.00;;;;;;;7.52;64.56;99661.73;104901;1258;96589;-81
2023/05/05 04:37:25;;;;;;;36.10;20.60;;;;;;;7.63;64.72;99659.07;104863;1261;109709;-81
2023/05/05 04:39:53;;;;;;;39.20;22.10;;;;;;;7.75;64.46;99659.54;104901;1259;96591;-81
2023/05/05 04:42:21;;;;;;;38.20;20.40;;;;;;;7.84;64.75;99657.98;104893;1260;107752;-81
2023/05/05 04:44:49;;;;;;;35.40;19.30;;;;;;;7.88;64.46;99659.75;104935;1263;96687;-81
2023/05/05 04:47:17;;;;;;;38.60;19.90;;;;;;;7.87;64.39;99661.54;104920;1261;96715;-81
2023/05/05 04:49:44;;;;;;;33.30;18.90;;;;;;;7.89;64.52;99663.55;104908;1269;110145;-81
2023/05/05 04:52:13;;;;;;;33.50;18.90;;;;;;;7.92;64.59;99670.11;104955;1259;96601;-81
2023/05/05 04:54:40;;;;;;;33.20;17.90;;;;;;;7.95;64.73;99670.84;104853;1263;107591;-81
2023/05/05 04:57:08;;;;;;;30.20;18.20;;;;;;;7.97;64.84;99672.52;104851;1258;96595;-80
2023/05/05 04:59:36;;;;;;;35.70;19.40;;;;;;;8.02;64.87;99671.53;104794;1264;97421;-81
2023/05/05 05:02:04;;;;;;;31.80;19.10;;;;;;;8.09;64.95;99666.59;104923;1267;110121;-80
2023/05/05 05:04:31;;;;;;;35.40;18.90;;;;;;;8.15;65.04;99662.37;104879;1258;96593;-81
2023/05/05 05:07:00;;;;;;;33.70;19.20;;;;;;;8.19;64.94;99659.34;104888;1264;107061;-80
2023/05/05 05:09:28;;;;;;;35.80;20.40;;;;;;;8.26;64.98;99662.15;104866;1260;96682;-81
2023/05/05 05:12:01;;;;;;;37.50;21.00;;;;;;;8.33;64.88;99666.39;104909;1266;97446;-82
2023/05/05 05:14:29;;;;;;;35.80;20.70;;;;;;;8.42;64.91;99667.50;104897;1267;110985;-81
2023/05/05 05:16:57;;;;;;;34.00;19.40;;;;;;;8.51;65.03;99664.02;104926;1264;96732;-81
2023/05/05 05:19:25;;;;;;;33.80;20.30;;;;;;;8.61;64.92;99670.77;104850;1260;106543;-80
2023/05/05 05:21:52;;;;;;;33.50;20.10;;;;;;;8.69;64.72;99669.26;104791;1260;96588;-81
2023/05/05 05:24:20;;;;;;;33.20;18.90;;;;;;;8.75;64.74;99675.98;104868;1255;96505;-81
2023/05/05 05:26:48;;;;;;;37.50;20.70;;;;;;;8.82;65.02;99673.86;104906;1260;110099;-81
2023/05/05 05:29:16;;;;;;;34.70;20.10;;;;;;;8.91;65.06;99674.20;104893;1267;96593;-82
2023/05/05 05:31:43;;;;;;;33.60;18.50;;;;;;;9.03;65.08;99677.64;104715;1267;108930;-81
2023/05/05 05:34:11;;;;;;;32.30;18.30;;;;;;;9.11;65.12;99679.11;104878;1268;98298;-81
2023/05/05 05:36:39;;;;;;;33.90;18.60;;;;;;;9.21;65.15;99675.17;104935;1260;96571;-81
2023/05/05 05:39:07;;;;;;;36.30;21.90;;;;;;;9.33;65.08;99673.08;104878;1261;110142;-81
2023/05/05 05:41:35;;;;;;;35.90;19.70;;;;;;;9.43;65.08;99672.68;104943;1261;97845;-81
2023/05/05 05:44:02;;;;;;;33.30;19.50;;;;;;;9.54;65.16;99672.06;104864;1270;107303;-81
2023/05/05 05:46:30;;;;;;;35.30;18.60;;;;;;;9.63;65.31;99669.22;104911;1255;96680;-81
2023/05/05 05:48:58;;;;;;;31.80;17.60;;;;;;;9.67;65.24;99667.94;104943;1261;96556;-80
2023/05/05 05:51:26;;;;;;;30.90;17.60;;;;;;;9.68;65.17;99672.29;104842;1260;110170;-81
2023/05/05 05:53:55;;;;;;;29.80;17.10;;;;;;;9.71;65.33;99671.80;104928;1261;97466;-81
2023/05/05 05:56:25;;;;;;;30.50;17.50;;;;;;;9.76;65.22;99672.94;104878;1262;107645;-81
2023/05/05 05:58:53;;;;;;;29.60;17.00;;;;;;;9.78;65.23;99668.00;104695;1269;96979;-81
2023/05/05 06:01:21;;;;;;;29.80;16.40;;;;;;;9.81;65.34;99668.17;104734;1258;96558;-82
2023/05/05 06:03:49;;;;;;;29.70;15.50;;;;;;;9.89;65.37;99676.77;104732;1260;108777;-81
2023/05/05 06:06:18;;;;;;;28.60;16.30;;;;;;;9.96;65.28;99683.60;105018;1260;97287;-81
2023/05/05 06:08:46;;;;;;;30.00;15.20;;;;;;;10.02;65.47;99684.27;104870;1262;108871;-81
2023/05/05 06:11:14;;;;;;;27.00;14.50;;;;;;;10.12;65.52;99690.41;104871;1260;96606;-79
2023/05/05 06:13:41;;;;;;;27.30;15.20;;;;;;;10.23;65.69;99692.92;104757;1260;96603;-82
2023/05/05 06:16:09;;;;;;;25.30;13.70;;;;;;;10.34;65.65;99690.36;104681;1264;108995;-80
2023/05/05 06:18:37;;;;;;;25.40;13.50;;;;;;;10.42;65.54;99687.90;104719;1260;96589;-80
2023/05/05 06:21:05;;;;;;;25.90;12.30;;;;;;;10.51;65.64;99685.04;104695;1261;107747;-81
2023/05/05 06:23:33;;;;;;;27.50;12.00;;;;;;;10.62;65.69;99683.33;104715;1270;96600;-81
2023/05/05 06:26:01;;;;;;;25.50;10.80;;;;;;;10.73;65.64;99682.98;104737;1261;96598;-81
2023/05/05 06:28:28;;;;;;;22.60;11.00;;;;;;;10.85;65.61;99681.83;104717;1270;111171;-81
2023/05/05 06:30:57;;;;;;;22.00;10.60;;;;;;;11.00;65.66;99682.52;104792;1270;96692;-81
2023/05/05 06:33:25;;;;;;;24.80;11.30;;;;;;;11.13;65.65;99686.26;104742;1261;107852;-81
2023/05/05 06:35:53;;;;;;;23.60;10.30;;;;;;;11.25;65.76;99687.98;104712;1274;96581;-81
2023/05/05 06:38:20;;;;;;;22.60;9.70;;;;;;;11.33;65.76;99684.27;104752;1263;96587;-81
2023/05/05 06:40:48;;;;;;;21.10;9.70;;;;;;;11.42;65.83;99685.10;104869;1260;109872;-81
2023/05/05 06:43:17;;;;;;;20.20;9.00;;;;;;;11.53;65.76;99683.31;104894;1261;97407;-82
2023/05/05 06:45:45;;;;;;;21.00;9.70;;;;;;;11.66;65.94;99682.08;104828;1270;107345;-81
2023/05/05 06:48:12;;;;;;;25.20;9.20;;;;;;;11.78;65.83;99682.88;104836;1260;96688;-82
2023/05/05 06:50:41;;;;;;;21.20;9.70;;;;;;;11.86;65.73;99682.85;104862;1258;97411;-81
2023/05/05 06:53:08;;;;;;;21.10;8.70;;;;;;;11.88;65.75;99682.36;104827;1259;111026;-82
2023/05/05 06:55:36;;;;;;;19.60;8.20;;;;;;;11.90;65.57;99676.38;104884;1261;96687;-82
2023/05/05 06:58:05;;;;;;;22.40;10.00;;;;;;;11.96;65.69;99678.35;104882;1270;108897;-80
2023/05/05 07:00:33;;;;;;;22.60;9.40;;;;;;;11.98;65.65;99677.30;104927;1261;96559;-81
2023/05/05 07:03:00;;;;;;;19.80;8.50;;;;;;;11.99;65.69;99675.63;104908;1259;97501;-81
2023/05/05 07:05:28;;;;;;;18.40;8.40;;;;;;;12.06;65.80;99676.77;104875;1263;110069;-81
2023/05/05 07:07:57;;;;;;;18.50;9.20;;;;;;;12.14;65.83;99681.34;104886;1272;96536;-81
2023/05/05 07:10:25;;;;;;;19.40;9.60;;;;;;;12.18;65.68;99680.71;104902;1258;108048;-81
2023/05/05 07:12:56;;;;;;;21.30;10.30;;;;;;;12.25;65.75;99674.91;104702;1261;96684;-81
2023/05/05 07:15:24;;;;;;;21.80;9.80;;;;;;;12.33;65.72;99677.41;104815;1261;97664;-80
2023/05/05 07:17:56;;;;;;;20.50;9.70;;;;;;;12.39;65.68;99680.52;104856;1260;109210;-80
2023/05/05 07:20:24;;;;;;;25.40;10.10;;;;;;;12.47;65.71;99678.33;104861;1260;96663;-80
2023/05/05 07:22:52;;;;;;;23.60;11.20;;;;;;;12.53;65.67;99676.55;104874;1259;108886;-78
2023/05/05 07:25:20;;;;;;;20.50;9.80;;;;;;;12.53;65.56;99675.08;105500;1254;96574;-81
2023/05/05 07:27:49;;;;;;;22.90;9.80;;;;;;;12.57;65.56;99675.20;105409;1254;96629;-83
2023/05/05 07:30:17;;;;;;;28.00;11.20;;;;;;;12.61;65.61;99670.59;104903;1265;515431;-83
2023/05/05 07:32:46;;;;;;;23.40;9.50;;;;;;;12.70;65.66;99673.73;105249;1254;96542;-82
2023/05/05 07:35:14;;;;;;;20.50;9.50;;;;;;;12.77;65.69;99679.60;105392;1253;107645;-81
2023/05/05 07:37:45;;;;;;;21.00;9.90;;;;;;;12.82;65.49;99677.84;105135;1270;96513;-84
2023/05/05 07:40:14;;;;;;;23.30;10.90;;;;;;;12.86;65.62;99681.28;105053;1257;96552;-84
2023/05/05 07:42:42;;;;;;;19.60;9.50;;;;;;;12.90;65.57;99684.73;105404;1254;109280;-78
2023/05/05 07:45:10;;;;;;;20.60;9.20;;;;;;;12.95;65.50;99682.27;105332;1254;97859;-77
2023/05/05 07:47:37;;;;;;;23.70;9.70;;;;;;;13.04;65.58;99678.94;105189;1259;106567;-77
2023/05/05 07:50:06;;;;;;;17.60;8.20;;;;;;;13.11;65.60;99679.32;105209;1255;96602;-79
2023/05/05 07:52:34;;;;;;;19.30;8.20;;;;;;;13.19;65.64;99679.45;105238;1255;96574;-79
2023/05/05 07:55:18;;;;;;;;;;;;;;;13.28;65.57;99678.41;105140;1254;110194;-84
2023/05/05 07:57:46;;;;;;;19.10;7.70;;;;;;;13.34;65.53;99673.14;105304;1257;96608;-84
2023/05/05 08:00:15;;;;;;;16.40;7.00;;;;;;;13.43;65.51;99668.23;105419;1254;106864;-80
2023/05/05 08:02:42;;;;;;;14.20;6.00;;;;;;;13.52;65.44;99662.77;105202;1257;97846;-84
2023/05/05 08:05:11;;;;;;;14.20;6.00;;;;;;;13.62;65.37;99661.86;105321;1258;96616;-83
2023/05/05 08:07:40;;;;;;;15.50;6.60;;;;;;;13.73;65.32;99665.27;105593;1254;111712;-81
2023/05/05 08:10:10;;;;;;;15.50;6.40;;;;;;;13.83;65.24;99662.91;105445;1253;96610;-81
2023/05/05 08:12:39;;;;;;;14.40;6.40;;;;;;;13.95;65.34;99661.81;105407;1253;106713;-80
2023/05/05 08:15:07;;;;;;;14.90;6.20;;;;;;;14.11;65.32;99660.06;105362;1254;97928;-81
2023/05/05 08:18:02;;;;;;;16.10;6.70;;;;;;;14.21;65.27;99666.39;105652;1254;96579;-81
2023/05/05 08:20:31;;;;;;;17.40;6.20;;;;;;;14.33;65.22;99660.70;105378;1257;110964;-81
2023/05/05 08:22:58;;;;;;;11.80;5.20;;;;;;;14.45;65.18;99662.79;105613;1254;96802;-81
2023/05/05 08:25:26;;;;;;;14.80;5.40;;;;;;;14.64;65.13;99662.15;105505;1257;108830;-81
2023/05/05 08:27:54;;;;;;;15.80;5.60;;;;;;;14.83;65.01;99660.48;105273;1257;96579;-83
2023/05/05 08:30:22;;;;;;;16.70;6.30;;;;;;;14.97;65.08;99667.20;105362;1254;97488;-84
2023/05/05 08:32:50;;;;;;;16.50;6.90;;;;;;;15.05;64.90;99665.36;105508;1257;111158;-83
2023/05/05 08:35:18;;;;;;;15.20;6.10;;;;;;;15.11;64.81;99654.64;105448;1254;96565;-84
2023/05/05 08:37:46;;;;;;;14.50;5.50;;;;;;;15.18;64.73;99656.94;105442;1254;107642;-83
2023/05/05 08:40:14;;;;;;;14.60;6.00;;;;;;;15.20;64.36;99656.81;105354;1257;96685;-83
2023/05/05 08:42:44;;;;;;;13.70;5.60;;;;;;;15.13;64.21;99658.07;105403;1257;96606;-83
2023/05/05 08:45:12;;;;;;;13.70;5.70;;;;;;;15.08;64.31;99659.18;105183;1257;110085;-79
2023/05/05 08:47:41;;;;;;;10.70;5.30;;;;;;;15.01;64.08;99661.39;105114;1257;97814;-77
2023/05/05 08:50:10;;;;;;;8.70;4.50;;;;;;;14.98;64.14;99657.32;105146;1258;106733;-78
2023/05/05 08:52:42;;;;;;;14.90;6.10;;;;;;;14.98;64.32;99657.90;105364;1266;96607;-78
2023/05/05 08:55:25;;;;;;;14.30;5.40;;;;;;;14.96;63.97;99652.34;105039;1261;96532;-76
2023/05/05 08:57:56;;;;;;;13.10;5.40;;;;;;;15.01;63.98;99651.00;105313;1257;109220;-79
2023/05/05 09:00:25;;;;;;;15.90;5.40;;;;;;;15.08;63.98;99648.13;105429;1253;96795;-79
2023/05/05 09:03:00;;;;;;;13.60;5.20;;;;;;;15.09;63.26;99649.27;105341;1257;108986;-79
2023/05/05 09:05:28;;;;;;;14.30;6.00;;;;;;;15.09;63.39;99650.70;105338;1254;96593;-80
2023/05/05 09:07:56;;;;;;;14.20;5.80;;;;;;;15.11;63.36;99646.29;105428;1259;96587;-79
2023/05/05 09:10:25;;;;;;;17.30;6.60;;;;;;;15.11;63.37;99645.36;105219;1258;109123;-79
2023/05/05 09:12:53;;;;;;;16.60;6.40;;;;;;;15.18;63.55;99647.70;106074;1257;96657;-79
2023/05/05 09:15:21;;;;;;;15.70;6.60;;;;;;;15.22;63.19;99650.35;105277;1256;107904;-79
2023/05/05 09:17:49;;;;;;;19.70;7.10;;;;;;;15.21;63.32;99646.92;105252;1267;96668;-79
2023/05/05 09:20:17;;;;;;;14.40;5.90;;;;;;;15.26;63.26;99652.01;106645;1253;96524;-79
2023/05/05 09:22:46;;;;;;;15.50;6.70;;;;;;;15.34;63.10;99655.10;108477;1253;110974;-80
2023/05/05 09:25:16;;;;;;;13.40;5.90;;;;;;;15.39;63.09;99659.20;106500;1257;96727;-79
2023/05/05 09:27:47;;;;;;;17.20;6.00;;;;;;;15.33;62.67;99658.22;105132;1257;108083;-78
2023/05/05 09:30:22;;;;;;;15.60;6.20;;;;;;;15.28;62.88;99659.00;105459;1254;96596;-84
2023/05/05 09:32:54;;;;;;;15.20;5.80;;;;;;;15.35;62.89;99664.14;105318;1254;96517;-79
2023/05/05 09:35:22;;;;;;;12.50;5.00;;;;;;;15.37;62.37;99660.79;105234;1254;109157;-80
2023/05/05 09:37:50;;;;;;;14.10;6.00;;;;;;;15.39;62.37;99655.76;105191;1254;96590;-79
2023/05/05 09:40:20;;;;;;;20.20;6.10;;;;;;;15.43;62.37;99656.88;105081;1254;107704;-79
2023/05/05 09:42:59;;;;;;;13.30;5.40;;;;;;;15.51;62.38;99663.02;105222;1258;96581;-79
2023/05/05 09:45:27;;;;;;;12.70;5.30;;;;;;;15.58;62.41;99659.55;105086;1257;96670;-78
2023/05/05 09:47:55;;;;;;;17.00;5.50;;;;;;;15.66;62.24;99654.95;105244;1254;109373;-80
2023/05/05 09:50:29;;;;;;;15.00;5.70;;;;;;;15.72;62.26;99659.45;105199;1258;97895;-79
2023/05/05 09:53:00;;;;;;;14.90;5.80;;;;;;;15.66;61.74;99649.81;105181;1257;108571;-78
2023/05/05 09:55:34;;;;;;;13.60;5.30;;;;;;;15.67;61.92;99645.26;105201;1258;97503;-79
2023/05/05 09:58:19;;;;;;;10.00;4.90;;;;;;;15.73;61.83;99649.69;105190;1257;96696;-78
2023/05/05 10:00:48;;;;;;;13.60;5.30;;;;;;;15.76;61.45;99647.25;105074;1258;110369;-79
2023/05/05 10:03:17;;;;;;;13.20;5.30;;;;;;;15.75;61.61;99649.54;105226;1258;97795;-79
2023/05/05 10:05:50;;;;;;;15.90;5.60;;;;;;;15.63;61.28;99645.56;105121;1258;106772;-79
2023/05/05 10:08:21;;;;;;;13.40;5.70;;;;;;;15.56;61.16;99640.59;105034;1254;97898;-79
2023/05/05 10:11:00;;;;;;;14.80;4.90;;;;;;;15.52;61.16;99643.05;105350;1257;96549;-78
2023/05/05 10:13:29;;;;;;;12.40;4.70;;;;;;;15.51;61.03;99645.52;105079;1257;110256;-78
2023/05/05 10:15:59;;;;;;;9.20;4.70;;;;;;;15.50;60.78;99648.05;105247;1258;96572;-79
2023/05/05 10:18:30;;;;;;;13.80;5.30;;;;;;;15.45;60.56;99642.23;105144;1254;108689;-79
2023/05/05 10:21:00;;;;;;;12.40;5.20;;;;;;;15.37;60.56;99641.25;105169;1257;97512;-79
2023/05/05 10:23:48;;;;;;;10.60;4.40;;;;;;;15.26;60.39;99640.79;108799;1253;94421;-80
2023/05/05 10:26:18;;;;;;;14.60;4.80;;;;;;;15.18;60.34;99636.45;108808;1253;110095;-80
2023/05/05 10:28:53;;;;;;;6.80;3.60;;;;;;;15.12;60.24;99633.91;108812;1253;94332;-79
2023/05/05 10:31:46;;;;;;;10.00;4.20;;;;;;;15.05;60.30;99634.31;108807;1253;107887;-79
2023/05/05 10:34:34;;;;;;;9.30;4.00;;;;;;;14.97;59.70;99627.92;108652;1253;94332;-80
2023/05/05 10:37:03;;;;;;;6.30;3.30;;;;;;;14.97;59.45;99623.98;108821;1253;94304;-80
2023/05/05 10:39:34;;;;;;;6.70;3.20;;;;;;;15.02;59.51;99621.85;108793;1253;111351;-80
2023/05/05 10:42:02;;;;;;;6.70;3.00;;;;;;;15.02;58.89;99619.31;108830;1253;95069;-79
2023/05/05 10:44:33;;;;;;;7.70;3.10;;;;;;;15.06;59.30;99617.23;108732;1254;108041;-80
2023/05/05 10:47:02;;;;;;;8.30;3.30;;;;;;;15.07;59.10;99614.11;108841;1253;94243;-79
2023/05/05 10:49:45;;;;;;;8.70;3.70;;;;;;;15.09;58.63;99615.22;108847;1254;94297;-80
2023/05/05 10:52:41;;;;;;;12.90;5.00;;;;;;;15.13;58.55;99614.86;108785;1253;109551;-79
2023/05/05 10:55:16;;;;;;;8.50;3.30;;;;;;;15.12;58.70;99611.17;108813;1253;94265;-80
2023/05/05 10:57:45;;;;;;;6.70;2.90;;;;;;;15.14;58.39;99605.83;108797;1253;107820;-79
2023/05/05 11:00:37;;;;;;;9.10;3.50;;;;;;;15.16;57.80;99610.27;108774;1254;94345;-79
2023/05/05 11:03:19;;;;;;;9.30;3.60;;;;;;;15.18;57.87;99605.71;108823;1253;94305;-80
2023/05/05 11:06:02;;;;;;;8.20;3.70;;;;;;;15.17;58.07;99602.38;108802;1253;110200;-79
2023/05/05 11:08:35;;;;;;;12.90;4.50;;;;;;;15.17;57.99;99598.63;108723;1253;94361;-80
2023/05/05 11:11:03;;;;;;;8.50;4.10;;;;;;;15.18;57.83;99598.19;108685;1253;107174;-80
2023/05/05 11:13:31;;;;;;;10.80;4.40;;;;;;;15.19;57.57;99592.41;108742;1253;94568;-80
2023/05/05 11:16:04;;;;;;;8.10;3.50;;;;;;;15.16;57.76;99583.86;108774;1254;94381;-80
2023/05/05 11:18:34;;;;;;;7.30;3.30;;;;;;;15.15;57.53;99583.05;108759;1253;108710;-83
2023/05/05 11:21:02;;;;;;;10.90;4.40;;;;;;;15.19;57.61;99577.94;108768;1253;94592;-84
2023/05/05 11:23:30;;;;;;;6.80;3.40;;;;;;;15.27;57.45;99578.51;108750;1254;107814;-83
2023/05/05 11:25:58;;;;;;;9.60;3.80;;;;;;;15.35;57.38;99577.09;108734;1253;94382;-80
2023/05/05 11:31:27;;;;;;;7.70;3.80;;;;;;;15.50;57.22;99577.07;102326;1289;635538;-78
2023/05/05 11:34:26;;;;;;;6.60;3.60;;;;;;;15.48;56.95;99577.58;104653;1263;94583;-80
2023/05/05 11:37:06;;;;;;;6.60;2.80;;;;;;;15.50;56.73;99581.22;104758;1267;95291;-83